sensor_id;sensor_type;location;lat;lon;timestamp;temperature;humidity
28520;DHT22;15732;48.534;20.382;2023-02-28T00:01:32;0.40;99.90
28520;DHT22;15732;48.534;20.382;2023-02-28T00:03:59;0.50;99.90
28520;DHT22;15732;48.534;20.382;2023-02-28T00:06:26;0.40;99.90
28520;DHT22;15732;48.534;20.382;2023-02-28T00:08:57;0.40;99.90
28520;DHT22;15732;48.534;20.382;2023-02-28T00:11:24;0.40;99.90
28520;DHT22;15732;48.534;20.382;2023-02-28T00:13:52;0.50;99.90
28520;DHT22;15732;48.534;20.382;2023-02-28T00:16:23;0.40;99.90
28520;DHT22;15732;48.534;20.382;2023-02-28T00:18:54;0.50;99.90
28520;DHT22;15732;48.534;20.382;2023-02-28T00:21:22;0.50;99.90
28520;DHT22;15732;48.534;20.382;2023-02-28T00:23:53;0.40;99.90
28520;DHT22;15732;48.534;20.382;2023-02-28T00:26:20;0.40;99.90
28520;DHT22;15732;48.534;20.382;2023-02-28T00:28:48;0.40;99.90
28520;DHT22;15732;48.534;20.382;2023-02-28T00:31:19;0.40;99.90
28520;DHT22;15732;48.534;20.382;2023-02-28T00:33:46;0.30;99.90
28520;DHT22;15732;48.534;20.382;2023-02-28T00:36:13;0.40;99.90
28520;DHT22;15732;48.534;20.382;2023-02-28T00:38:41;0.30;99.90
28520;DHT22;15732;48.534;20.382;2023-02-28T00:41:12;0.30;99.90
28520;DHT22;15732;48.534;20.382;2023-02-28T00:43:44;0.30;99.90
28520;DHT22;15732;48.534;20.382;2023-02-28T00:46:15;0.20;99.90
28520;DHT22;15732;48.534;20.382;2023-02-28T00:48:42;0.20;99.90
28520;DHT22;15732;48.534;20.382;2023-02-28T00:51:09;0.20;99.90
28520;DHT22;15732;48.534;20.382;2023-02-28T00:53:37;0.20;99.90
28520;DHT22;15732;48.534;20.382;2023-02-28T00:56:05;0.30;99.90
28520;DHT22;15732;48.534;20.382;2023-02-28T00:58:32;0.30;99.90
28520;DHT22;15732;48.534;20.382;2023-02-28T01:01:00;0.30;99.90
28520;DHT22;15732;48.534;20.382;2023-02-28T01:03:26;0.30;99.90
28520;DHT22;15732;48.534;20.382;2023-02-28T01:05:54;0.30;99.90
28520;DHT22;15732;48.534;20.382;2023-02-28T01:08:25;0.30;99.90
28520;DHT22;15732;48.534;20.382;2023-02-28T01:10:53;0.30;99.90
28520;DHT22;15732;48.534;20.382;2023-02-28T01:13:21;0.30;99.90
28520;DHT22;15732;48.534;20.382;2023-02-28T01:15:51;0.30;99.90
28520;DHT22;15732;48.534;20.382;2023-02-28T01:18:20;0.30;99.90
28520;DHT22;15732;48.534;20.382;2023-02-28T01:20:52;0.30;99.90
28520;DHT22;15732;48.534;20.382;2023-02-28T01:23:20;0.40;99.90
28520;DHT22;15732;48.534;20.382;2023-02-28T01:25:48;0.40;99.90
28520;DHT22;15732;48.534;20.382;2023-02-28T01:28:16;0.50;99.90
28520;DHT22;15732;48.534;20.382;2023-02-28T01:30:47;0.50;99.90
28520;DHT22;15732;48.534;20.382;2023-02-28T01:33:18;0.60;99.90
28520;DHT22;15732;48.534;20.382;2023-02-28T01:35:45;0.50;99.90
28520;DHT22;15732;48.534;20.382;2023-02-28T01:38:12;0.50;99.90
28520;DHT22;15732;48.534;20.382;2023-02-28T01:40:39;0.60;99.90
28520;DHT22;15732;48.534;20.382;2023-02-28T01:43:22;0.50;99.90
28520;DHT22;15732;48.534;20.382;2023-02-28T01:45:50;0.60;99.90
28520;DHT22;15732;48.534;20.382;2023-02-28T01:48:19;0.50;99.90
28520;DHT22;15732;48.534;20.382;2023-02-28T01:50:48;0.50;99.90
28520;DHT22;15732;48.534;20.382;2023-02-28T01:53:24;0.50;99.90
28520;DHT22;15732;48.534;20.382;2023-02-28T01:55:54;0.60;99.90
28520;DHT22;15732;48.534;20.382;2023-02-28T01:58:22;0.60;99.90
28520;DHT22;15732;48.534;20.382;2023-02-28T02:00:49;0.60;99.90
28520;DHT22;15732;48.534;20.382;2023-02-28T02:03:18;0.50;99.90
28520;DHT22;15732;48.534;20.382;2023-02-28T02:05:46;0.60;99.90
28520;DHT22;15732;48.534;20.382;2023-02-28T02:08:18;0.60;99.90
28520;DHT22;15732;48.534;20.382;2023-02-28T02:10:50;0.60;99.90
28520;DHT22;15732;48.534;20.382;2023-02-28T02:19:45;0.40;99.90
28520;DHT22;15732;48.534;20.382;2023-02-28T02:41:17;0.50;99.90
28520;DHT22;15732;48.534;20.382;2023-02-28T02:43:57;0.40;99.90
28520;DHT22;15732;48.534;20.382;2023-02-28T02:46:34;0.40;99.90
28520;DHT22;15732;48.534;20.382;2023-02-28T02:49:08;0.30;99.90
28520;DHT22;15732;48.534;20.382;2023-02-28T02:51:37;0.30;99.90
28520;DHT22;15732;48.534;20.382;2023-02-28T02:54:19;0.40;99.90
28520;DHT22;15732;48.534;20.382;2023-02-28T02:56:48;0.40;99.90
28520;DHT22;15732;48.534;20.382;2023-02-28T02:59:21;0.40;99.90
28520;DHT22;15732;48.534;20.382;2023-02-28T03:01:53;0.40;99.90
28520;DHT22;15732;48.534;20.382;2023-02-28T03:04:28;0.50;99.90
28520;DHT22;15732;48.534;20.382;2023-02-28T03:07:00;0.50;99.90
28520;DHT22;15732;48.534;20.382;2023-02-28T03:09:28;0.50;99.90
28520;DHT22;15732;48.534;20.382;2023-02-28T03:11:56;0.50;99.90
28520;DHT22;15732;48.534;20.382;2023-02-28T03:25:08;0.50;99.90
28520;DHT22;15732;48.534;20.382;2023-02-28T03:30:25;0.50;99.90
28520;DHT22;15732;48.534;20.382;2023-02-28T03:32:56;0.60;99.90
28520;DHT22;15732;48.534;20.382;2023-02-28T03:35:28;0.60;99.90
28520;DHT22;15732;48.534;20.382;2023-02-28T03:39:05;0.60;99.90
28520;DHT22;15732;48.534;20.382;2023-02-28T03:41:12;0.60;99.90
28520;DHT22;15732;48.534;20.382;2023-02-28T03:43:47;0.60;99.90
28520;DHT22;15732;48.534;20.382;2023-02-28T03:46:19;0.50;99.90
28520;DHT22;15732;48.534;20.382;2023-02-28T03:49:07;0.60;99.90
28520;DHT22;15732;48.534;20.382;2023-02-28T03:51:36;0.60;99.90
28520;DHT22;15732;48.534;20.382;2023-02-28T03:54:12;0.60;99.90
28520;DHT22;15732;48.534;20.382;2023-02-28T03:56:56;0.60;99.90
28520;DHT22;15732;48.534;20.382;2023-02-28T03:59:36;0.70;99.90
28520;DHT22;15732;48.534;20.382;2023-02-28T04:02:05;0.70;99.90
28520;DHT22;15732;48.534;20.382;2023-02-28T04:04:32;0.70;99.90
28520;DHT22;15732;48.534;20.382;2023-02-28T04:07:09;0.70;99.90
28520;DHT22;15732;48.534;20.382;2023-02-28T04:09:37;0.70;99.90
28520;DHT22;15732;48.534;20.382;2023-02-28T04:12:09;0.60;99.90
28520;DHT22;15732;48.534;20.382;2023-02-28T04:14:36;0.60;99.90
28520;DHT22;15732;48.534;20.382;2023-02-28T04:17:03;0.70;99.90
28520;DHT22;15732;48.534;20.382;2023-02-28T04:19:31;0.70;99.90
28520;DHT22;15732;48.534;20.382;2023-02-28T04:22:02;0.70;99.90
28520;DHT22;15732;48.534;20.382;2023-02-28T04:24:33;0.70;99.90
28520;DHT22;15732;48.534;20.382;2023-02-28T04:27:00;0.80;99.90
28520;DHT22;15732;48.534;20.382;2023-02-28T04:29:31;0.80;99.90
28520;DHT22;15732;48.534;20.382;2023-02-28T04:32:02;0.90;99.90
28520;DHT22;15732;48.534;20.382;2023-02-28T04:34:31;0.80;99.90
28520;DHT22;15732;48.534;20.382;2023-02-28T04:36:59;0.80;99.90
28520;DHT22;15732;48.534;20.382;2023-02-28T04:39:26;0.90;99.90
28520;DHT22;15732;48.534;20.382;2023-02-28T04:41:54;0.90;99.90
28520;DHT22;15732;48.534;20.382;2023-02-28T04:44:22;0.80;99.90
28520;DHT22;15732;48.534;20.382;2023-02-28T04:46:49;0.80;99.90
28520;DHT22;15732;48.534;20.382;2023-02-28T04:49:17;0.80;99.90
28520;DHT22;15732;48.534;20.382;2023-02-28T04:51:48;0.70;99.90
28520;DHT22;15732;48.534;20.382;2023-02-28T04:54:16;0.70;99.90
28520;DHT22;15732;48.534;20.382;2023-02-28T04:56:44;0.70;99.90
28520;DHT22;15732;48.534;20.382;2023-02-28T04:59:12;0.60;99.90
28520;DHT22;15732;48.534;20.382;2023-02-28T05:01:39;0.70;99.90
28520;DHT22;15732;48.534;20.382;2023-02-28T05:04:10;0.80;99.90
28520;DHT22;15732;48.534;20.382;2023-02-28T05:06:38;0.80;99.90
28520;DHT22;15732;48.534;20.382;2023-02-28T05:09:05;0.80;99.90
28520;DHT22;15732;48.534;20.382;2023-02-28T05:11:34;0.90;99.90
28520;DHT22;15732;48.534;20.382;2023-02-28T05:14:02;0.80;99.90
28520;DHT22;15732;48.534;20.382;2023-02-28T05:16:33;0.80;99.90
28520;DHT22;15732;48.534;20.382;2023-02-28T05:19:00;0.90;99.90
28520;DHT22;15732;48.534;20.382;2023-02-28T05:21:35;0.90;99.90
28520;DHT22;15732;48.534;20.382;2023-02-28T05:24:08;0.80;99.90
28520;DHT22;15732;48.534;20.382;2023-02-28T05:26:38;0.80;99.90
28520;DHT22;15732;48.534;20.382;2023-02-28T05:29:09;0.80;99.90
28520;DHT22;15732;48.534;20.382;2023-02-28T05:31:37;0.90;99.90
28520;DHT22;15732;48.534;20.382;2023-02-28T05:34:04;0.90;99.90
28520;DHT22;15732;48.534;20.382;2023-02-28T05:36:31;0.90;99.90
28520;DHT22;15732;48.534;20.382;2023-02-28T05:38:59;1.00;99.90
28520;DHT22;15732;48.534;20.382;2023-02-28T05:41:26;1.00;99.90
28520;DHT22;15732;48.534;20.382;2023-02-28T05:43:53;1.10;99.90
28520;DHT22;15732;48.534;20.382;2023-02-28T05:46:24;1.10;99.90
28520;DHT22;15732;48.534;20.382;2023-02-28T05:48:52;1.10;99.90
28520;DHT22;15732;48.534;20.382;2023-02-28T05:51:25;1.00;99.90
28520;DHT22;15732;48.534;20.382;2023-02-28T05:53:52;0.90;99.90
28520;DHT22;15732;48.534;20.382;2023-02-28T05:56:19;0.90;99.90
28520;DHT22;15732;48.534;20.382;2023-02-28T05:58:47;0.80;99.90
28520;DHT22;15732;48.534;20.382;2023-02-28T06:01:40;0.70;99.90
28520;DHT22;15732;48.534;20.382;2023-02-28T06:04:18;0.70;99.90
28520;DHT22;15732;48.534;20.382;2023-02-28T06:06:46;0.60;99.90
28520;DHT22;15732;48.534;20.382;2023-02-28T06:09:14;0.70;99.90
28520;DHT22;15732;48.534;20.382;2023-02-28T06:11:45;0.70;99.90
28520;DHT22;15732;48.534;20.382;2023-02-28T06:14:19;0.70;99.90
28520;DHT22;15732;48.534;20.382;2023-02-28T06:16:46;0.80;99.90
28520;DHT22;15732;48.534;20.382;2023-02-28T06:19:13;0.80;99.90
28520;DHT22;15732;48.534;20.382;2023-02-28T06:21:42;0.80;99.90
28520;DHT22;15732;48.534;20.382;2023-02-28T06:24:08;0.80;99.90
28520;DHT22;15732;48.534;20.382;2023-02-28T06:26:39;0.90;99.90
28520;DHT22;15732;48.534;20.382;2023-02-28T06:29:06;0.90;99.90
28520;DHT22;15732;48.534;20.382;2023-02-28T06:31:34;1.00;99.90
28520;DHT22;15732;48.534;20.382;2023-02-28T06:34:05;1.00;99.90
28520;DHT22;15732;48.534;20.382;2023-02-28T06:36:32;1.00;99.90
28520;DHT22;15732;48.534;20.382;2023-02-28T06:39:00;1.00;99.90
28520;DHT22;15732;48.534;20.382;2023-02-28T06:41:27;1.00;99.90
28520;DHT22;15732;48.534;20.382;2023-02-28T06:43:53;1.00;99.90
28520;DHT22;15732;48.534;20.382;2023-02-28T06:46:20;1.10;99.90
28520;DHT22;15732;48.534;20.382;2023-02-28T06:48:46;1.10;99.90
28520;DHT22;15732;48.534;20.382;2023-02-28T06:51:18;1.10;99.90
28520;DHT22;15732;48.534;20.382;2023-02-28T06:53:47;1.10;99.90
28520;DHT22;15732;48.534;20.382;2023-02-28T06:56:18;1.10;99.90
28520;DHT22;15732;48.534;20.382;2023-02-28T06:58:48;1.10;99.90
28520;DHT22;15732;48.534;20.382;2023-02-28T07:01:15;1.10;99.90
28520;DHT22;15732;48.534;20.382;2023-02-28T07:03:48;1.10;99.90
28520;DHT22;15732;48.534;20.382;2023-02-28T07:06:19;1.10;99.90
28520;DHT22;15732;48.534;20.382;2023-02-28T07:08:46;1.20;99.90
28520;DHT22;15732;48.534;20.382;2023-02-28T07:11:14;1.20;99.90
28520;DHT22;15732;48.534;20.382;2023-02-28T07:13:41;1.20;99.90
28520;DHT22;15732;48.534;20.382;2023-02-28T07:16:10;1.10;99.90
28520;DHT22;15732;48.534;20.382;2023-02-28T07:18:37;1.20;99.90
28520;DHT22;15732;48.534;20.382;2023-02-28T07:21:07;1.30;99.90
28520;DHT22;15732;48.534;20.382;2023-02-28T07:23:35;1.20;99.90
28520;DHT22;15732;48.534;20.382;2023-02-28T07:26:02;1.30;99.90
28520;DHT22;15732;48.534;20.382;2023-02-28T07:28:30;1.30;99.90
28520;DHT22;15732;48.534;20.382;2023-02-28T07:30:57;1.30;99.90
28520;DHT22;15732;48.534;20.382;2023-02-28T07:33:27;1.30;99.90
28520;DHT22;15732;48.534;20.382;2023-02-28T07:36:03;1.30;99.90
28520;DHT22;15732;48.534;20.382;2023-02-28T07:38:33;1.40;99.90
28520;DHT22;15732;48.534;20.382;2023-02-28T07:40:59;1.40;99.90
28520;DHT22;15732;48.534;20.382;2023-02-28T07:43:33;1.40;99.90
28520;DHT22;15732;48.534;20.382;2023-02-28T07:46:06;1.40;99.90
28520;DHT22;15732;48.534;20.382;2023-02-28T07:48:34;1.50;99.90
28520;DHT22;15732;48.534;20.382;2023-02-28T07:51:01;1.50;99.90
28520;DHT22;15732;48.534;20.382;2023-02-28T07:53:29;1.60;99.90
28520;DHT22;15732;48.534;20.382;2023-02-28T07:55:57;1.60;99.90
28520;DHT22;15732;48.534;20.382;2023-02-28T07:58:25;1.70;99.90
28520;DHT22;15732;48.534;20.382;2023-02-28T08:00:53;1.70;99.90
28520;DHT22;15732;48.534;20.382;2023-02-28T08:03:22;1.70;99.90
28520;DHT22;15732;48.534;20.382;2023-02-28T08:05:49;1.80;99.90
28520;DHT22;15732;48.534;20.382;2023-02-28T08:08:21;1.80;99.90
28520;DHT22;15732;48.534;20.382;2023-02-28T08:10:49;1.80;99.90
28520;DHT22;15732;48.534;20.382;2023-02-28T08:13:20;1.90;99.90
28520;DHT22;15732;48.534;20.382;2023-02-28T08:15:47;1.90;99.90
28520;DHT22;15732;48.534;20.382;2023-02-28T08:18:15;2.00;99.90
28520;DHT22;15732;48.534;20.382;2023-02-28T08:20:46;2.10;99.90
28520;DHT22;15732;48.534;20.382;2023-02-28T08:23:13;2.20;99.90
28520;DHT22;15732;48.534;20.382;2023-02-28T08:25:40;2.20;99.90
28520;DHT22;15732;48.534;20.382;2023-02-28T08:28:07;2.30;99.90
28520;DHT22;15732;48.534;20.382;2023-02-28T08:30:34;2.30;99.90
28520;DHT22;15732;48.534;20.382;2023-02-28T08:33:06;2.30;99.90
28520;DHT22;15732;48.534;20.382;2023-02-28T08:35:36;2.40;99.90
28520;DHT22;15732;48.534;20.382;2023-02-28T08:38:02;2.40;99.90
28520;DHT22;15732;48.534;20.382;2023-02-28T08:40:29;2.40;99.90
28520;DHT22;15732;48.534;20.382;2023-02-28T08:42:57;2.40;99.90
28520;DHT22;15732;48.534;20.382;2023-02-28T08:45:29;2.40;99.90
28520;DHT22;15732;48.534;20.382;2023-02-28T08:48:00;2.50;99.90
28520;DHT22;15732;48.534;20.382;2023-02-28T08:50:27;2.50;99.90
28520;DHT22;15732;48.534;20.382;2023-02-28T08:52:54;2.60;99.90
28520;DHT22;15732;48.534;20.382;2023-02-28T08:55:25;2.60;99.90
28520;DHT22;15732;48.534;20.382;2023-02-28T08:57:53;2.70;99.90
28520;DHT22;15732;48.534;20.382;2023-02-28T09:00:22;2.80;99.90
28520;DHT22;15732;48.534;20.382;2023-02-28T09:02:54;2.90;99.90
28520;DHT22;15732;48.534;20.382;2023-02-28T09:05:21;2.90;99.90
28520;DHT22;15732;48.534;20.382;2023-02-28T09:07:49;2.90;99.90
28520;DHT22;15732;48.534;20.382;2023-02-28T09:10:17;3.00;99.90
28520;DHT22;15732;48.534;20.382;2023-02-28T09:12:45;3.00;99.90
28520;DHT22;15732;48.534;20.382;2023-02-28T09:15:13;3.10;99.90
28520;DHT22;15732;48.534;20.382;2023-02-28T09:17:41;3.10;99.90
28520;DHT22;15732;48.534;20.382;2023-02-28T09:20:10;3.20;99.90
28520;DHT22;15732;48.534;20.382;2023-02-28T09:22:39;3.20;99.90
28520;DHT22;15732;48.534;20.382;2023-02-28T09:25:07;3.20;99.90
28520;DHT22;15732;48.534;20.382;2023-02-28T09:27:35;3.30;99.90
28520;DHT22;15732;48.534;20.382;2023-02-28T09:30:03;3.40;99.90
28520;DHT22;15732;48.534;20.382;2023-02-28T09:32:31;3.50;99.90
28520;DHT22;15732;48.534;20.382;2023-02-28T09:35:03;3.50;99.90
28520;DHT22;15732;48.534;20.382;2023-02-28T09:37:32;3.60;99.90
28520;DHT22;15732;48.534;20.382;2023-02-28T09:39:59;3.60;99.90
28520;DHT22;15732;48.534;20.382;2023-02-28T09:42:34;3.60;99.90
28520;DHT22;15732;48.534;20.382;2023-02-28T09:45:02;3.60;99.90
28520;DHT22;15732;48.534;20.382;2023-02-28T09:47:52;3.70;99.90
28520;DHT22;15732;48.534;20.382;2023-02-28T09:52:54;3.80;99.90
28520;DHT22;15732;48.534;20.382;2023-02-28T09:57:47;3.90;99.90
28520;DHT22;15732;48.534;20.382;2023-02-28T10:00:32;4.00;99.90
28520;DHT22;15732;48.534;20.382;2023-02-28T10:06:05;4.10;99.90
28520;DHT22;15732;48.534;20.382;2023-02-28T10:09:04;4.20;99.90
28520;DHT22;15732;48.534;20.382;2023-02-28T10:11:37;4.20;99.90
28520;DHT22;15732;48.534;20.382;2023-02-28T10:14:11;4.30;99.90
28520;DHT22;15732;48.534;20.382;2023-02-28T10:16:48;4.40;99.90
28520;DHT22;15732;48.534;20.382;2023-02-28T10:19:40;4.40;99.90
28520;DHT22;15732;48.534;20.382;2023-02-28T10:22:20;4.40;99.90
28520;DHT22;15732;48.534;20.382;2023-02-28T10:24:51;4.50;99.90
28520;DHT22;15732;48.534;20.382;2023-02-28T10:27:28;4.50;99.90
28520;DHT22;15732;48.534;20.382;2023-02-28T10:30:00;4.50;99.90
28520;DHT22;15732;48.534;20.382;2023-02-28T10:32:35;4.60;99.90
28520;DHT22;15732;48.534;20.382;2023-02-28T10:35:21;4.60;99.90
28520;DHT22;15732;48.534;20.382;2023-02-28T10:38:00;4.60;99.90
28520;DHT22;15732;48.534;20.382;2023-02-28T10:40:35;4.70;99.90
28520;DHT22;15732;48.534;20.382;2023-02-28T10:45:39;4.80;99.90
28520;DHT22;15732;48.534;20.382;2023-02-28T11:01:43;5.00;99.90
28520;DHT22;15732;48.534;20.382;2023-02-28T11:06:45;5.10;99.90
28520;DHT22;15732;48.534;20.382;2023-02-28T11:09:33;5.10;99.90
28520;DHT22;15732;48.534;20.382;2023-02-28T11:12:19;5.10;99.90
28520;DHT22;15732;48.534;20.382;2023-02-28T11:14:54;5.20;99.90
28520;DHT22;15732;48.534;20.382;2023-02-28T11:17:24;5.20;99.90
28520;DHT22;15732;48.534;20.382;2023-02-28T11:20:04;5.20;99.90
28520;DHT22;15732;48.534;20.382;2023-02-28T11:22:38;5.30;99.90
28520;DHT22;15732;48.534;20.382;2023-02-28T11:25:17;5.40;99.90
28520;DHT22;15732;48.534;20.382;2023-02-28T11:27:49;5.40;99.90
28520;DHT22;15732;48.534;20.382;2023-02-28T11:30:34;5.50;99.90
28520;DHT22;15732;48.534;20.382;2023-02-28T11:34:07;5.50;99.90
28520;DHT22;15732;48.534;20.382;2023-02-28T11:36:21;5.50;99.90
28520;DHT22;15732;48.534;20.382;2023-02-28T11:38:55;5.50;99.90
28520;DHT22;15732;48.534;20.382;2023-02-28T11:41:50;5.60;99.90
28520;DHT22;15732;48.534;20.382;2023-02-28T11:44:36;5.60;99.90
28520;DHT22;15732;48.534;20.382;2023-02-28T11:53:19;5.70;99.90
28520;DHT22;15732;48.534;20.382;2023-02-28T11:56:08;5.70;99.90
28520;DHT22;15732;48.534;20.382;2023-02-28T12:10:26;5.90;99.90
28520;DHT22;15732;48.534;20.382;2023-02-28T12:21:34;6.00;99.90
28520;DHT22;15732;48.534;20.382;2023-02-28T12:24:06;6.00;99.90
28520;DHT22;15732;48.534;20.382;2023-02-28T12:26:45;6.10;99.90
28520;DHT22;15732;48.534;20.382;2023-02-28T12:35:23;6.10;99.90
28520;DHT22;15732;48.534;20.382;2023-02-28T12:38:10;6.10;99.90
28520;DHT22;15732;48.534;20.382;2023-02-28T12:41:33;6.20;99.90
28520;DHT22;15732;48.534;20.382;2023-02-28T12:43:43;6.10;99.90
28520;DHT22;15732;48.534;20.382;2023-02-28T12:46:38;6.20;99.90
28520;DHT22;15732;48.534;20.382;2023-02-28T12:52:05;6.20;99.90
28520;DHT22;15732;48.534;20.382;2023-02-28T12:54:41;6.20;99.90
28520;DHT22;15732;48.534;20.382;2023-02-28T12:57:31;6.20;99.90
28520;DHT22;15732;48.534;20.382;2023-02-28T13:00:19;6.20;99.90
28520;DHT22;15732;48.534;20.382;2023-02-28T13:11:25;6.20;99.90
28520;DHT22;15732;48.534;20.382;2023-02-28T13:13:58;6.20;99.90
28520;DHT22;15732;48.534;20.382;2023-02-28T13:16:26;6.30;99.90
28520;DHT22;15732;48.534;20.382;2023-02-28T13:19:09;6.30;99.90
28520;DHT22;15732;48.534;20.382;2023-02-28T13:21:43;6.30;99.90
28520;DHT22;15732;48.534;20.382;2023-02-28T13:24:11;6.30;99.90
28520;DHT22;15732;48.534;20.382;2023-02-28T13:27:19;6.30;99.90
28520;DHT22;15732;48.534;20.382;2023-02-28T13:29:53;6.30;99.90
28520;DHT22;15732;48.534;20.382;2023-02-28T13:32:32;6.30;99.90
28520;DHT22;15732;48.534;20.382;2023-02-28T13:37:35;6.40;99.90
28520;DHT22;15732;48.534;20.382;2023-02-28T13:42:57;6.50;99.90
28520;DHT22;15732;48.534;20.382;2023-02-28T13:48:29;6.50;99.90
28520;DHT22;15732;48.534;20.382;2023-02-28T13:51:36;6.60;99.90
28520;DHT22;15732;48.534;20.382;2023-02-28T14:05:37;6.60;99.90
28520;DHT22;15732;48.534;20.382;2023-02-28T14:08:16;6.60;99.90
28520;DHT22;15732;48.534;20.382;2023-02-28T14:10:49;6.70;99.90
28520;DHT22;15732;48.534;20.382;2023-02-28T14:13:41;6.60;99.90
28520;DHT22;15732;48.534;20.382;2023-02-28T14:16:39;6.70;99.90
28520;DHT22;15732;48.534;20.382;2023-02-28T14:19:12;6.70;99.90
28520;DHT22;15732;48.534;20.382;2023-02-28T14:27:44;6.60;99.90
28520;DHT22;15732;48.534;20.382;2023-02-28T14:30:40;6.70;99.90
28520;DHT22;15732;48.534;20.382;2023-02-28T14:36:35;6.70;99.90
28520;DHT22;15732;48.534;20.382;2023-02-28T14:39:25;6.70;99.90
28520;DHT22;15732;48.534;20.382;2023-02-28T14:41:54;6.70;99.90
28520;DHT22;15732;48.534;20.382;2023-02-28T14:44:25;6.70;99.90
28520;DHT22;15732;48.534;20.382;2023-02-28T14:47:04;6.70;99.90
28520;DHT22;15732;48.534;20.382;2023-02-28T14:49:37;6.70;99.90
28520;DHT22;15732;48.534;20.382;2023-02-28T14:52:24;6.70;99.90
28520;DHT22;15732;48.534;20.382;2023-02-28T14:57:31;6.70;99.90
28520;DHT22;15732;48.534;20.382;2023-02-28T15:02:45;6.70;99.90
28520;DHT22;15732;48.534;20.382;2023-02-28T15:07:48;6.70;99.90
28520;DHT22;15732;48.534;20.382;2023-02-28T15:10:27;6.70;99.90
28520;DHT22;15732;48.534;20.382;2023-02-28T15:13:21;6.70;99.90
28520;DHT22;15732;48.534;20.382;2023-02-28T15:15:59;6.80;99.90
28520;DHT22;15732;48.534;20.382;2023-02-28T15:18:48;6.80;99.90
28520;DHT22;15732;48.534;20.382;2023-02-28T15:26:45;6.70;99.90
28520;DHT22;15732;48.534;20.382;2023-02-28T15:29:15;6.70;99.90
28520;DHT22;15732;48.534;20.382;2023-02-28T15:31:45;6.70;99.90
28520;DHT22;15732;48.534;20.382;2023-02-28T15:34:42;6.60;99.90
28520;DHT22;15732;48.534;20.382;2023-02-28T15:37:52;6.60;99.90
28520;DHT22;15732;48.534;20.382;2023-02-28T15:40:28;6.60;99.90
28520;DHT22;15732;48.534;20.382;2023-02-28T15:43:22;6.50;99.90
28520;DHT22;15732;48.534;20.382;2023-02-28T15:48:35;6.50;99.90
28520;DHT22;15732;48.534;20.382;2023-02-28T15:51:09;6.40;99.90
28520;DHT22;15732;48.534;20.382;2023-02-28T15:56:31;6.30;99.90
28520;DHT22;15732;48.534;20.382;2023-02-28T15:59:07;6.20;99.90
28520;DHT22;15732;48.534;20.382;2023-02-28T16:01:35;6.20;99.90
28520;DHT22;15732;48.534;20.382;2023-02-28T16:04:06;6.20;99.90
28520;DHT22;15732;48.534;20.382;2023-02-28T16:06:42;6.10;99.90
28520;DHT22;15732;48.534;20.382;2023-02-28T16:09:13;6.10;99.90
28520;DHT22;15732;48.534;20.382;2023-02-28T16:11:50;6.10;99.90
28520;DHT22;15732;48.534;20.382;2023-02-28T16:14:25;6.10;99.90
28520;DHT22;15732;48.534;20.382;2023-02-28T16:16:55;6.10;99.90
28520;DHT22;15732;48.534;20.382;2023-02-28T16:19:22;6.00;99.90
28520;DHT22;15732;48.534;20.382;2023-02-28T16:21:50;6.00;99.90
28520;DHT22;15732;48.534;20.382;2023-02-28T16:24:17;6.00;99.90
28520;DHT22;15732;48.534;20.382;2023-02-28T16:26:47;6.00;99.90
28520;DHT22;15732;48.534;20.382;2023-02-28T16:29:34;6.00;99.90
28520;DHT22;15732;48.534;20.382;2023-02-28T16:32:05;6.00;99.90
28520;DHT22;15732;48.534;20.382;2023-02-28T16:34:32;5.90;99.90
28520;DHT22;15732;48.534;20.382;2023-02-28T16:36:59;5.90;99.90
28520;DHT22;15732;48.534;20.382;2023-02-28T16:39:26;5.80;99.90
28520;DHT22;15732;48.534;20.382;2023-02-28T16:41:54;5.70;99.90
28520;DHT22;15732;48.534;20.382;2023-02-28T16:44:32;5.60;99.90
28520;DHT22;15732;48.534;20.382;2023-02-28T16:47:03;5.60;99.90
28520;DHT22;15732;48.534;20.382;2023-02-28T16:49:30;5.50;99.90
28520;DHT22;15732;48.534;20.382;2023-02-28T16:51:57;5.60;99.90
28520;DHT22;15732;48.534;20.382;2023-02-28T16:54:24;5.50;99.90
28520;DHT22;15732;48.534;20.382;2023-02-28T16:56:51;5.40;99.90
28520;DHT22;15732;48.534;20.382;2023-02-28T16:59:22;5.30;99.90
28520;DHT22;15732;48.534;20.382;2023-02-28T17:01:51;5.20;99.90
28520;DHT22;15732;48.534;20.382;2023-02-28T17:04:22;5.10;99.90
28520;DHT22;15732;48.534;20.382;2023-02-28T17:06:49;5.10;99.90
28520;DHT22;15732;48.534;20.382;2023-02-28T17:09:22;5.00;99.90
28520;DHT22;15732;48.534;20.382;2023-02-28T17:11:55;5.00;99.90
28520;DHT22;15732;48.534;20.382;2023-02-28T17:14:23;4.90;99.90
28520;DHT22;15732;48.534;20.382;2023-02-28T17:16:50;4.90;99.90
28520;DHT22;15732;48.534;20.382;2023-02-28T17:19:21;4.90;99.90
28520;DHT22;15732;48.534;20.382;2023-02-28T17:21:48;4.90;99.90
28520;DHT22;15732;48.534;20.382;2023-02-28T17:24:16;4.80;99.90
28520;DHT22;15732;48.534;20.382;2023-02-28T17:26:43;4.80;99.90
28520;DHT22;15732;48.534;20.382;2023-02-28T17:29:18;4.70;99.90
28520;DHT22;15732;48.534;20.382;2023-02-28T17:31:45;4.60;99.90
28520;DHT22;15732;48.534;20.382;2023-02-28T17:34:13;4.60;99.90
28520;DHT22;15732;48.534;20.382;2023-02-28T17:36:45;4.50;99.90
28520;DHT22;15732;48.534;20.382;2023-02-28T17:39:13;4.30;99.90
28520;DHT22;15732;48.534;20.382;2023-02-28T17:41:41;4.30;99.90
28520;DHT22;15732;48.534;20.382;2023-02-28T17:44:09;4.20;99.90
28520;DHT22;15732;48.534;20.382;2023-02-28T17:46:36;4.20;99.90
28520;DHT22;15732;48.534;20.382;2023-02-28T17:49:03;4.20;99.90
28520;DHT22;15732;48.534;20.382;2023-02-28T17:51:30;4.20;99.90
28520;DHT22;15732;48.534;20.382;2023-02-28T17:54:01;4.10;99.90
28520;DHT22;15732;48.534;20.382;2023-02-28T17:56:29;4.10;99.90
28520;DHT22;15732;48.534;20.382;2023-02-28T17:58:58;4.10;99.90
28520;DHT22;15732;48.534;20.382;2023-02-28T18:01:25;4.10;99.90
28520;DHT22;15732;48.534;20.382;2023-02-28T18:03:53;4.00;99.90
28520;DHT22;15732;48.534;20.382;2023-02-28T18:06:36;3.90;99.90
28520;DHT22;15732;48.534;20.382;2023-02-28T18:09:17;3.90;99.90
28520;DHT22;15732;48.534;20.382;2023-02-28T18:11:45;3.80;99.90
28520;DHT22;15732;48.534;20.382;2023-02-28T18:14:21;3.70;99.90
28520;DHT22;15732;48.534;20.382;2023-02-28T18:16:54;3.60;99.90
28520;DHT22;15732;48.534;20.382;2023-02-28T18:19:25;3.50;99.90
28520;DHT22;15732;48.534;20.382;2023-02-28T18:21:53;3.40;99.90
28520;DHT22;15732;48.534;20.382;2023-02-28T18:24:24;3.40;99.90
28520;DHT22;15732;48.534;20.382;2023-02-28T18:26:55;3.40;99.90
28520;DHT22;15732;48.534;20.382;2023-02-28T18:29:25;3.40;99.90
28520;DHT22;15732;48.534;20.382;2023-02-28T18:31:57;3.40;99.90
28520;DHT22;15732;48.534;20.382;2023-02-28T18:34:25;3.40;99.90
28520;DHT22;15732;48.534;20.382;2023-02-28T18:36:52;3.30;99.90
28520;DHT22;15732;48.534;20.382;2023-02-28T18:39:23;3.30;99.90